createdAt,value
2022-09-18T00:01:12.344Z,8.46
2022-09-18T00:03:42.134Z,8.41
2022-09-18T00:06:11.707Z,8.57
2022-09-18T00:08:43.622Z,8.55
2022-09-18T00:11:13.700Z,8.57
2022-09-18T00:13:40.997Z,8.68
2022-09-18T00:16:09.670Z,8.79
2022-09-18T00:18:36.387Z,8.86
2022-09-18T00:21:07.859Z,8.90
2022-09-18T00:23:34.707Z,8.75
2022-09-18T00:26:01.572Z,8.69
2022-09-18T00:28:28.744Z,8.66
2022-09-18T00:31:13.631Z,8.68
2022-09-18T00:33:40.534Z,8.79
2022-09-18T00:36:10.144Z,9.00
2022-09-18T00:38:37.794Z,9.05
2022-09-18T00:41:07.034Z,9.10
2022-09-18T00:43:35.454Z,9.03
2022-09-18T00:46:03.284Z,9.15
2022-09-18T00:48:47.273Z,9.13
2022-09-18T00:51:15.008Z,9.22
2022-09-18T00:53:48.903Z,9.22
2022-09-18T00:56:15.773Z,9.13
2022-09-18T00:58:42.479Z,9.09
2022-09-18T01:01:09.197Z,8.95
2022-09-18T01:03:36.249Z,8.81
2022-09-18T01:06:26.433Z,8.65
2022-09-18T01:09:10.430Z,8.57
2022-09-18T01:11:46.528Z,8.43
2022-09-18T01:14:22.912Z,8.45
2022-09-18T01:17:21.812Z,8.33
2022-09-18T01:20:01.298Z,8.38
2022-09-18T01:22:53.217Z,8.45
2022-09-18T01:25:27.362Z,8.58
2022-09-18T01:28:24.572Z,8.59
2022-09-18T01:30:55.900Z,8.62
2022-09-18T01:33:28.531Z,8.67
2022-09-18T01:35:58.424Z,8.69
2022-09-18T01:38:36.043Z,8.64
2022-09-18T01:41:05.666Z,8.54
2022-09-18T01:43:33.023Z,8.46
2022-09-18T01:46:05.752Z,8.48
2022-09-18T01:48:39.333Z,8.41
2022-09-18T01:51:29.728Z,8.40
2022-09-18T01:54:03.787Z,8.38
2022-09-18T01:56:34.263Z,8.29
2022-09-18T01:59:03.307Z,8.23
2022-09-18T02:01:42.617Z,8.15
2022-09-18T02:04:14.579Z,8.14
2022-09-18T02:07:19.417Z,8.07
2022-09-18T02:09:47.799Z,8.07
2022-09-18T02:12:18.711Z,8.07
2022-09-18T02:14:47.823Z,7.99
2022-09-18T02:17:51.416Z,8.08
2022-09-18T02:20:21.921Z,8.09
2022-09-18T02:22:50.828Z,8.15
2022-09-18T02:25:21.607Z,8.11
2022-09-18T02:27:49.411Z,8.08
2022-09-18T02:30:16.580Z,8.11
2022-09-18T02:32:43.712Z,8.01
2022-09-18T02:35:11.217Z,7.94
2022-09-18T02:37:41.807Z,7.90
2022-09-18T02:40:15.263Z,7.83
2022-09-18T02:43:12.681Z,7.79
2022-09-18T02:45:58.811Z,7.78
2022-09-18T02:48:38.397Z,7.69
2022-09-18T02:51:23.247Z,7.71
2022-09-18T02:54:02.126Z,7.66
2022-09-18T02:56:38.740Z,7.69
2022-09-18T02:59:12.497Z,7.80
2022-09-18T03:01:43.697Z,7.72
2022-09-18T03:04:14.432Z,7.71
2022-09-18T03:07:04.472Z,7.70
2022-09-18T03:09:35.799Z,7.71
2022-09-18T03:12:03.535Z,7.79
2022-09-18T03:14:35.496Z,7.78
2022-09-18T03:17:02.959Z,7.83
2022-09-18T03:19:31.116Z,7.91
2022-09-18T03:21:59.004Z,7.94
2022-09-18T03:24:28.292Z,7.90
2022-09-18T03:26:55.060Z,7.98
2022-09-18T03:29:24.446Z,7.95
2022-09-18T03:31:51.952Z,7.93
2022-09-18T03:34:23.291Z,7.95
2022-09-18T03:36:50.155Z,7.99
2022-09-18T03:39:17.990Z,8.00
2022-09-18T03:41:47.032Z,7.99
2022-09-18T03:44:17.226Z,8.05
2022-09-18T03:46:45.071Z,8.03
2022-09-18T03:49:11.888Z,8.02
2022-09-18T03:51:40.239Z,7.98
2022-09-18T03:54:07.632Z,8.05
2022-09-18T03:56:56.803Z,8.04
2022-09-18T03:59:40.861Z,8.13
2022-09-18T04:02:46.063Z,8.14
2022-09-18T04:05:33.032Z,8.17
2022-09-18T04:08:32.128Z,8.23
2022-09-18T04:11:07.332Z,8.26
2022-09-18T04:13:34.763Z,8.24
2022-09-18T04:16:06.347Z,8.25
2022-09-18T04:18:33.011Z,8.20
2022-09-18T04:21:01.707Z,8.17
2022-09-18T04:23:28.668Z,8.13
2022-09-18T04:25:57.271Z,8.08
2022-09-18T04:28:28.706Z,8.05
2022-09-18T04:30:55.400Z,8.06
2022-09-18T04:33:22.712Z,8.14
2022-09-18T04:35:51.615Z,8.16
2022-09-18T04:38:18.322Z,8.12
2022-09-18T04:40:45.113Z,8.07
2022-09-18T04:43:11.761Z,8.09
2022-09-18T04:45:40.196Z,8.11
2022-09-18T04:48:11.678Z,8.07
2022-09-18T04:50:38.321Z,8.20
2022-09-18T04:53:16.322Z,8.20
2022-09-18T04:55:45.134Z,8.25
2022-09-18T04:58:13.691Z,8.30
2022-09-18T05:00:42.502Z,8.30
2022-09-18T05:03:10.250Z,8.29
2022-09-18T05:05:39.067Z,8.25
2022-09-18T05:08:06.470Z,8.20
2022-09-18T05:10:33.988Z,8.17
2022-09-18T05:13:02.386Z,8.23
2022-09-18T05:15:29.036Z,8.26
2022-09-18T05:18:10.563Z,8.22
2022-09-18T05:20:38.107Z,8.26
2022-09-18T05:23:07.183Z,8.34
2022-09-18T05:25:35.779Z,8.38
2022-09-18T05:28:03.669Z,8.53
2022-09-18T05:30:41.923Z,8.68
2022-09-18T05:33:10.225Z,8.75
2022-09-18T05:35:39.815Z,8.80
2022-09-18T05:38:07.086Z,8.83
2022-09-18T05:40:38.077Z,8.96
2022-09-18T05:43:05.689Z,9.02
2022-09-18T05:45:34.006Z,8.93
2022-09-18T05:48:05.705Z,8.93
2022-09-18T05:50:34.739Z,8.83
2022-09-18T05:53:06.898Z,8.79
2022-09-18T05:55:42.518Z,8.80
2022-09-18T05:58:17.342Z,8.74
2022-09-18T06:00:44.826Z,8.81
2022-09-18T06:03:20.933Z,8.79
2022-09-18T06:05:55.481Z,8.78
2022-09-18T06:08:22.764Z,8.77
2022-09-18T06:10:56.653Z,8.85
2022-09-18T06:13:23.825Z,8.96
2022-09-18T06:15:52.699Z,8.95
2022-09-18T06:18:33.974Z,8.93
2022-09-18T06:21:02.027Z,8.95
2022-09-18T06:23:30.140Z,8.98
2022-09-18T06:26:12.705Z,9.02
2022-09-18T06:28:41.241Z,9.20
2022-09-18T06:31:08.163Z,9.02
2022-09-18T06:33:48.681Z,9.15
2022-09-18T06:36:16.319Z,9.18
2022-09-18T06:39:05.801Z,9.23
2022-09-18T06:41:32.539Z,9.35
2022-09-18T06:44:00.101Z,9.25
2022-09-18T06:46:32.954Z,9.33
2022-09-18T06:49:18.547Z,9.33
2022-09-18T06:51:55.648Z,9.36
2022-09-18T06:54:22.482Z,9.29
2022-09-18T06:56:49.572Z,9.30
2022-09-18T06:59:24.374Z,9.29
2022-09-18T07:01:51.801Z,9.22
2022-09-18T07:04:35.254Z,9.23
2022-09-18T07:07:01.927Z,9.22
2022-09-18T07:09:30.484Z,9.31
2022-09-18T07:12:10.016Z,9.35
2022-09-18T07:14:44.900Z,9.55
2022-09-18T07:17:18.061Z,9.62
2022-09-18T07:19:51.662Z,9.63
2022-09-18T07:22:21.312Z,9.65
2022-09-18T07:24:47.945Z,9.85
2022-09-18T07:27:14.559Z,9.82
2022-09-18T07:29:42.496Z,9.74
2022-09-18T07:32:12.306Z,9.84
2022-09-18T07:34:38.901Z,9.91
2022-09-18T07:37:09.569Z,9.94
2022-09-18T07:39:38.595Z,9.84
2022-09-18T07:42:24.165Z,9.94
2022-09-18T07:44:53.883Z,9.98
2022-09-18T07:47:20.740Z,10.02
2022-09-18T07:49:47.516Z,10.02
2022-09-18T07:52:14.556Z,9.97
2022-09-18T07:54:45.359Z,9.95
2022-09-18T07:57:33.469Z,10.10
2022-09-18T08:00:22.709Z,10.15
2022-09-18T08:02:51.244Z,10.19
2022-09-18T08:05:39.227Z,10.08
2022-09-18T08:08:12.922Z,10.10
2022-09-18T08:10:56.274Z,10.19
2022-09-18T08:13:41.422Z,10.15
2022-09-18T08:16:25.905Z,10.12
2022-09-18T08:19:14.657Z,9.91
2022-09-18T08:21:53.400Z,9.88
2022-09-18T08:24:21.735Z,10.04
2022-09-18T08:26:49.825Z,9.92
2022-09-18T08:29:19.032Z,9.86
2022-09-18T08:32:09.794Z,9.74
2022-09-18T08:34:37.521Z,9.84
2022-09-18T08:37:06.824Z,9.80
2022-09-18T08:39:59.598Z,9.87
2022-09-18T08:42:41.606Z,9.78
2022-09-18T08:45:15.985Z,9.86
2022-09-18T08:48:00.464Z,10.05
2022-09-18T08:50:38.362Z,10.09
2022-09-18T08:53:15.580Z,10.28
2022-09-18T08:56:16.477Z,10.24
2022-09-18T08:59:04.954Z,10.32
2022-09-18T09:02:05.457Z,10.15
2022-09-18T09:04:33.015Z,10.20
2022-09-18T09:07:24.641Z,10.10
2022-09-18T09:10:03.357Z,10.28
2022-09-18T09:12:46.815Z,10.24
2022-09-18T09:15:31.736Z,10.35
2022-09-18T09:18:15.235Z,10.23
2022-09-18T09:20:50.759Z,10.39
2022-09-18T09:23:57.116Z,10.20
2022-09-18T09:26:54.365Z,10.41
2022-09-18T09:29:44.823Z,10.41
2022-09-18T09:32:42.118Z,10.30
2022-09-18T09:35:22.194Z,10.45
2022-09-18T09:38:22.664Z,10.27
2022-09-18T09:40:50.687Z,10.26
2022-09-18T09:43:23.121Z,10.16
2022-09-18T09:45:58.607Z,10.09
2022-09-18T09:48:32.219Z,10.22
2022-09-18T09:51:10.224Z,10.22
2022-09-18T09:53:36.834Z,10.24
2022-09-18T09:56:18.033Z,10.14
2022-09-18T09:59:08.176Z,10.26
2022-09-18T10:01:46.207Z,10.22
2022-09-18T10:04:32.379Z,10.17
2022-09-18T10:07:02.093Z,10.26
2022-09-18T10:09:43.567Z,10.34
2022-09-18T10:12:22.845Z,10.22
2022-09-18T10:14:54.749Z,10.25
2022-09-18T10:17:21.917Z,10.06
2022-09-18T10:19:49.891Z,10.18
2022-09-18T10:22:20.198Z,10.13
2022-09-18T10:24:58.143Z,10.12
2022-09-18T10:27:26.364Z,10.10
2022-09-18T10:29:54.110Z,10.09
2022-09-18T10:32:36.792Z,10.12
2022-09-18T10:35:31.224Z,10.14
2022-09-18T10:38:01.343Z,10.15
2022-09-18T10:40:45.375Z,10.20
2022-09-18T10:43:18.933Z,10.24
2022-09-18T10:45:54.177Z,10.33
2022-09-18T10:48:27.456Z,10.25
2022-09-18T10:51:06.135Z,10.22
2022-09-18T10:54:06.848Z,10.24
2022-09-18T10:57:30.605Z,10.14
2022-09-18T11:00:00.648Z,10.05
2022-09-18T11:02:29.561Z,10.11
2022-09-18T11:04:56.824Z,9.95
2022-09-18T11:07:28.593Z,10.05
2022-09-18T11:09:55.278Z,10.09
2022-09-18T11:12:24.515Z,9.83
2022-09-18T11:15:02.371Z,9.87
2022-09-18T11:17:32.074Z,9.89
2022-09-18T11:20:02.752Z,9.73
2022-09-18T11:23:23.095Z,9.72
2022-09-18T11:26:16.423Z,9.70
2022-09-18T11:28:43.195Z,9.85
2022-09-18T11:31:15.915Z,9.93
2022-09-18T11:33:49.369Z,10.12
2022-09-18T11:36:28.541Z,10.33
2022-09-18T11:38:57.342Z,10.39
2022-09-18T11:41:27.537Z,10.45
2022-09-18T11:44:16.068Z,10.24
2022-09-18T11:47:18.669Z,10.09
2022-09-18T11:49:58.625Z,10.02
2022-09-18T11:52:43.257Z,10.13
2022-09-18T11:55:26.549Z,10.01
2022-09-18T11:58:00.179Z,9.95
2022-09-18T12:00:30.449Z,9.70
2022-09-18T12:03:26.334Z,9.78
2022-09-18T12:06:25.176Z,9.86
2022-09-18T12:09:21.086Z,9.98
2022-09-18T12:12:02.724Z,9.94
2022-09-18T12:14:37.003Z,9.93
2022-09-18T12:17:23.987Z,10.01
2022-09-18T12:20:06.748Z,10.02
2022-09-18T12:22:42.875Z,10.16
2022-09-18T12:26:08.591Z,10.22
2022-09-18T12:28:48.961Z,10.59
2022-09-18T12:32:15.921Z,10.63
2022-09-18T12:35:22.188Z,10.71
2022-09-18T12:38:29.042Z,10.63
2022-09-18T12:41:30.267Z,10.62
2022-09-18T12:44:22.999Z,10.77
2022-09-18T12:47:19.019Z,10.55
2022-09-18T12:50:41.103Z,10.50
2022-09-18T12:56:54.382Z,10.74
2022-09-18T13:00:13.311Z,10.73
2022-09-18T13:03:34.967Z,10.62
2022-09-18T13:09:30.165Z,10.49
2022-09-18T13:12:04.031Z,10.24
2022-09-18T13:14:46.002Z,10.36
2022-09-18T13:17:18.823Z,10.25
2022-09-18T13:19:50.515Z,10.23
2022-09-18T13:22:23.865Z,10.34
2022-09-18T13:24:57.257Z,10.52
2022-09-18T13:27:38.697Z,10.53
2022-09-18T13:30:30.795Z,10.38
2022-09-18T13:33:02.763Z,10.31
2022-09-18T13:35:31.951Z,10.50
2022-09-18T13:38:12.970Z,10.51
2022-09-18T13:40:46.085Z,10.56
2022-09-18T13:43:31.542Z,10.50
2022-09-18T13:46:08.239Z,10.62
2022-09-18T13:48:47.062Z,10.71
2022-09-18T13:51:31.129Z,10.84
2022-09-18T13:54:22.806Z,11.00
2022-09-18T13:57:14.689Z,10.94
2022-09-18T13:59:44.425Z,11.22
2022-09-18T14:02:36.651Z,11.37
2022-09-18T14:05:25.108Z,11.44
2022-09-18T14:07:56.036Z,11.45
2022-09-18T14:10:28.872Z,11.58
2022-09-18T14:13:23.636Z,11.47
2022-09-18T14:16:04.616Z,11.85
2022-09-18T14:18:54.229Z,11.86
2022-09-18T14:21:29.023Z,11.82
2022-09-18T14:24:23.346Z,11.86
2022-09-18T14:27:00.613Z,12.10
2022-09-18T14:29:29.647Z,12.04
2022-09-18T14:31:57.963Z,12.12
2022-09-18T14:34:33.800Z,11.69
2022-09-18T14:37:21.804Z,11.69
2022-09-18T14:39:48.454Z,11.81
2022-09-18T14:42:33.402Z,11.79
2022-09-18T14:45:12.346Z,11.62
2022-09-18T14:47:47.243Z,11.54
2022-09-18T14:50:33.855Z,11.59
2022-09-18T14:53:20.510Z,11.42
2022-09-18T14:56:06.480Z,11.34
2022-09-18T14:58:38.324Z,11.32
2022-09-18T15:01:17.048Z,11.09
2022-09-18T15:03:49.105Z,11.08
2022-09-18T15:06:21.092Z,10.81
2022-09-18T15:08:49.790Z,10.62
2022-09-18T15:11:17.670Z,10.46
2022-09-18T15:13:45.044Z,10.19
2022-09-18T15:16:21.457Z,10.21
2022-09-18T15:18:55.096Z,10.23
2022-09-18T15:21:37.623Z,10.22
2022-09-18T15:24:05.889Z,10.19
2022-09-18T15:26:39.636Z,10.15
2022-09-18T15:29:16.259Z,10.14
2022-09-18T15:31:45.337Z,9.81
2022-09-18T15:34:19.697Z,9.63
2022-09-18T15:36:46.724Z,9.46
2022-09-18T15:39:37.206Z,9.42
2022-09-18T15:42:21.004Z,9.48
2022-09-18T15:44:50.867Z,9.51
2022-09-18T15:47:43.379Z,9.54
2022-09-18T15:50:12.978Z,9.52
2022-09-18T15:53:03.823Z,9.64
2022-09-18T15:55:46.545Z,9.63
2022-09-18T15:58:35.118Z,9.68
2022-09-18T16:01:06.022Z,9.62
2022-09-18T16:03:50.627Z,9.66
2022-09-18T16:06:27.676Z,9.56
2022-09-18T16:08:56.894Z,9.48
2022-09-18T16:11:52.228Z,9.48
2022-09-18T16:14:44.868Z,9.19
2022-09-18T16:17:43.652Z,9.11
2022-09-18T16:20:37.376Z,9.15
2022-09-18T16:23:20.055Z,9.25
2022-09-18T16:26:11.356Z,9.19
2022-09-18T16:28:56.205Z,9.19
2022-09-18T16:31:33.656Z,9.14
2022-09-18T16:34:23.695Z,9.07
2022-09-18T16:36:50.920Z,9.01
2022-09-18T16:39:33.864Z,8.95
2022-09-18T16:42:05.550Z,8.92
2022-09-18T16:44:33.007Z,8.95
2022-09-18T16:47:18.467Z,9.04
2022-09-18T16:49:51.279Z,9.07
2022-09-18T16:52:40.672Z,9.02
2022-09-18T16:55:16.883Z,8.96
2022-09-18T16:57:43.680Z,9.01
2022-09-18T17:00:14.206Z,9.07
2022-09-18T17:02:49.541Z,9.14
2022-09-18T17:05:16.308Z,9.15
2022-09-18T17:07:43.870Z,9.26
2022-09-18T17:10:17.210Z,9.39
2022-09-18T17:12:45.092Z,9.38
2022-09-18T17:15:12.716Z,9.31
2022-09-18T17:17:51.862Z,9.34
2022-09-18T17:20:18.887Z,9.42
2022-09-18T17:22:46.129Z,9.35
2022-09-18T17:25:15.839Z,9.24
2022-09-18T17:27:43.828Z,9.21
2022-09-18T17:30:11.850Z,9.15
2022-09-18T17:32:42.279Z,9.14
2022-09-18T17:35:11.049Z,9.10
2022-09-18T17:37:37.726Z,9.10
2022-09-18T17:40:04.781Z,9.01
2022-09-18T17:42:31.717Z,9.07
2022-09-18T17:44:58.678Z,9.02
2022-09-18T17:47:25.641Z,9.03
2022-09-18T17:49:54.665Z,9.00
2022-09-18T17:52:21.247Z,9.03
2022-09-18T17:54:47.814Z,9.00
2022-09-18T17:57:15.071Z,9.04
2022-09-18T17:59:44.100Z,8.99
2022-09-18T18:02:13.348Z,8.95
2022-09-18T18:04:40.082Z,8.87
2022-09-18T18:07:06.694Z,8.85
2022-09-18T18:09:36.318Z,8.81
2022-09-18T18:12:04.629Z,8.67
2022-09-18T18:14:32.273Z,8.77
2022-09-18T18:17:00.739Z,8.72
2022-09-18T18:19:28.281Z,8.76
2022-09-18T18:21:57.172Z,8.72
2022-09-18T18:24:29.015Z,8.81
2022-09-18T18:27:00.612Z,8.93
2022-09-18T18:29:37.993Z,8.99
2022-09-18T18:32:16.501Z,9.14
2022-09-18T18:34:43.443Z,9.22
2022-09-18T18:37:16.453Z,9.16
2022-09-18T18:39:49.110Z,9.12
2022-09-18T18:42:15.920Z,9.15
2022-09-18T18:44:44.672Z,9.12
2022-09-18T18:47:18.613Z,9.06
2022-09-18T18:49:48.161Z,9.10
2022-09-18T18:52:17.062Z,9.08
2022-09-18T18:54:52.805Z,9.04
2022-09-18T18:57:25.268Z,9.05
2022-09-18T18:59:54.801Z,9.02
2022-09-18T19:02:21.914Z,9.08
2022-09-18T19:04:48.994Z,9.02
2022-09-18T19:07:15.939Z,8.97
2022-09-18T19:09:58.087Z,8.93
2022-09-18T19:13:14.964Z,8.88
2022-09-18T19:15:39.874Z,8.92
2022-09-18T19:18:06.839Z,8.87
2022-09-18T19:20:34.582Z,8.93
2022-09-18T19:23:01.449Z,8.93
2022-09-18T19:25:37.278Z,8.94
2022-09-18T19:28:06.234Z,8.86
2022-09-18T19:30:43.873Z,8.82
2022-09-18T19:33:23.490Z,8.84
2022-09-18T19:35:53.328Z,8.97
2022-09-18T19:38:21.203Z,8.99
2022-09-18T19:40:51.864Z,9.04
2022-09-18T19:43:30.451Z,9.02
2022-09-18T19:46:08.998Z,9.03
2022-09-18T19:48:38.399Z,9.03
2022-09-18T19:51:05.703Z,9.00
2022-09-18T19:53:37.093Z,9.02
2022-09-18T19:56:18.427Z,9.03
2022-09-18T19:58:54.469Z,9.06
2022-09-18T20:01:22.689Z,9.06
2022-09-18T20:03:59.321Z,9.01
2022-09-18T20:06:40.687Z,9.10
2022-09-18T20:09:07.499Z,9.05
2022-09-18T20:11:35.203Z,9.21
2022-09-18T20:14:04.048Z,9.26
2022-09-18T20:16:31.109Z,9.30
2022-09-18T20:18:57.750Z,9.26
2022-09-18T20:21:24.350Z,9.12
2022-09-18T20:23:56.470Z,8.98
2022-09-18T20:26:23.462Z,8.88
2022-09-18T20:28:50.344Z,8.75
2022-09-18T20:31:17.619Z,8.70
2022-09-18T20:33:44.225Z,8.66
2022-09-18T20:36:11.495Z,8.63
2022-09-18T20:38:40.068Z,8.62
2022-09-18T20:41:13.514Z,8.63
2022-09-18T20:43:44.206Z,8.65
2022-09-18T20:46:14.188Z,8.65
2022-09-18T20:48:42.159Z,8.67
2022-09-18T20:51:10.710Z,8.63
2022-09-18T20:53:39.111Z,8.67
2022-09-18T20:56:09.379Z,8.71
2022-09-18T20:58:36.813Z,8.71
2022-09-18T21:01:14.857Z,8.66
2022-09-18T21:03:42.952Z,8.69
2022-09-18T21:06:22.421Z,8.68
2022-09-18T21:08:53.205Z,8.62
2022-09-18T21:11:28.525Z,8.60
2022-09-18T21:13:57.319Z,8.60
2022-09-18T21:16:26.328Z,8.62
2022-09-18T21:18:56.747Z,8.54
2022-09-18T21:21:27.668Z,8.63
2022-09-18T21:23:59.471Z,8.68
2022-09-18T21:26:33.782Z,8.64
2022-09-18T21:29:01.211Z,8.62
2022-09-18T21:31:28.421Z,8.60
2022-09-18T21:33:55.155Z,8.60
2022-09-18T21:36:26.128Z,8.59
2022-09-18T21:38:53.957Z,8.62
2022-09-18T21:41:22.178Z,8.61
2022-09-18T21:43:50.430Z,8.61
2022-09-18T21:46:23.709Z,8.60
2022-09-18T21:48:54.343Z,8.62
2022-09-18T21:51:21.369Z,8.60
2022-09-18T21:53:48.179Z,8.70
2022-09-18T21:56:19.816Z,8.66
2022-09-18T21:58:47.732Z,8.75
2022-09-18T22:01:18.746Z,8.80
2022-09-18T22:03:56.162Z,8.76
2022-09-18T22:06:24.883Z,8.71
2022-09-18T22:08:54.477Z,8.73
2022-09-18T22:11:30.833Z,8.71
2022-09-18T22:13:59.747Z,8.75
2022-09-18T22:16:29.435Z,8.70
2022-09-18T22:18:56.694Z,8.73
2022-09-18T22:21:33.333Z,8.80
2022-09-18T22:24:09.073Z,8.80
2022-09-18T22:26:41.212Z,8.76
2022-09-18T22:29:12.115Z,8.80
2022-09-18T22:31:39.490Z,8.83
2022-09-18T22:34:06.553Z,8.85
2022-09-18T22:36:33.543Z,8.82
2022-09-18T22:39:00.417Z,8.86
2022-09-18T22:41:27.002Z,8.79
2022-09-18T22:43:57.235Z,8.76
2022-09-18T22:46:25.680Z,8.68
2022-09-18T22:48:59.648Z,8.64
2022-09-18T22:51:27.261Z,8.66
2022-09-18T22:54:12.875Z,8.65
2022-09-18T22:59:32.397Z,8.59
2022-09-18T23:02:02.598Z,8.49
2022-09-18T23:04:31.038Z,8.44
2022-09-18T23:06:59.124Z,8.32
2022-09-18T23:09:26.170Z,8.31
2022-09-18T23:11:53.247Z,8.32
2022-09-18T23:14:26.100Z,8.39
2022-09-18T23:16:53.192Z,8.36
2022-09-18T23:19:24.273Z,8.46
2022-09-18T23:21:51.108Z,8.44
2022-09-18T23:24:18.236Z,8.47
2022-09-18T23:26:49.128Z,8.46
2022-09-18T23:29:19.264Z,8.54
2022-09-18T23:31:49.757Z,8.57
2022-09-18T23:34:19.349Z,8.58
2022-09-18T23:36:48.172Z,8.58
2022-09-18T23:39:24.368Z,8.55
2022-09-18T23:41:51.920Z,8.54
2022-09-18T23:44:21.162Z,8.57
2022-09-18T23:46:48.000Z,8.58
2022-09-18T23:49:15.750Z,8.58
2022-09-18T23:51:48.727Z,8.69
2022-09-18T23:54:22.902Z,8.72
2022-09-18T23:56:50.142Z,8.67
2022-09-18T23:59:22.623Z,8.66
